WN09 weather

Bucky's Airpark
Plainfield, Wisconsin, United States

Public forecast

Using degrees Fahrenheit for public forecast. Weather courtesy of forecast.io.

Closest aviation weather report (METAR) to Bucky's Airpark

Closest report is Wautoma Municipal Airport, 11.5 nm (21.2 km) SE. Retrieved 2019/10/14 03:56 UTC (38 minutes ago):

KY50 140356Z AUTO 25007KT 10SM CLR 00/M01 A2990 RMK AO2 SLP130 T00001006 FZRANO

Closest aviation forecast (TAF) to Bucky's Airpark

Forecast is more than 12 hours old.

Closest forecast is Volk Field, 34.9 nm (64.6 km) WSW. Retrieved 2019/10/11 17:09 UTC (2 days ago):

TAF KVOK 111700Z 1117/1223 27010G15KT 9999 OVC020 QNH2982INS BECMG 1122/1123 23012KT 8000 -RA OVC010 620209 QNH2984INS TEMPO 1200/1204 -RASN 620109 BECMG 1204/1205 23009KT 9999 NSW OVC010 QNH2979INS BECMG 1214/1215 23015G25KT 9999 BKN025 QNH2970INS TX07/1117Z TNM01/1213Z LAST NO AMDS AFT 1120 NEXT 1509